createdAt,value
2019-06-27T00:00:34.070Z,21.36
2019-06-27T00:01:52.607Z,21.39
2019-06-27T00:02:44.965Z,21.3
2019-06-27T00:03:11.160Z,21.32
2019-06-27T00:04:03.476Z,21.37
2019-06-27T00:04:55.795Z,21.25
2019-06-27T00:05:21.938Z,21.29
2019-06-27T00:06:14.264Z,21.39
2019-06-27T00:07:32.693Z,21.27
2019-06-27T00:08:25.002Z,21.42
2019-06-27T00:08:51.141Z,21.4
2019-06-27T00:09:43.445Z,21.32
2019-06-27T00:10:35.747Z,21.42
2019-06-27T00:11:01.892Z,21.4
2019-06-27T00:11:54.228Z,21.45
2019-06-27T00:13:12.667Z,21.4
2019-06-27T00:14:04.953Z,21.35
2019-06-27T00:14:31.084Z,21.32
2019-06-27T00:15:23.405Z,21.39
2019-06-27T00:16:15.728Z,21.35
2019-06-27T00:16:41.892Z,21.32
2019-06-27T00:17:34.174Z,21.43
2019-06-27T00:18:52.633Z,21.45
2019-06-27T00:19:44.962Z,21.45
2019-06-27T00:20:11.090Z,21.45
2019-06-27T00:21:03.440Z,21.42
2019-06-27T00:21:55.728Z,21.5
2019-06-27T00:22:21.863Z,21.48
2019-06-27T00:23:14.229Z,21.54
2019-06-27T00:24:32.678Z,21.43
2019-06-27T00:25:24.994Z,21.32
2019-06-27T00:25:51.201Z,21.35
2019-06-27T00:26:56.382Z,21.32
2019-06-27T00:27:11.653Z,21.29
2019-06-27T00:28:03.973Z,21.37
2019-06-27T00:28:56.280Z,21.22
2019-06-27T00:29:22.420Z,21.24
2019-06-27T00:30:14.703Z,21.22
2019-06-27T00:31:33.158Z,21.29
2019-06-27T00:32:25.447Z,21.27
2019-06-27T00:32:51.589Z,21.27
2019-06-27T00:33:43.938Z,21.22
2019-06-27T00:34:10.089Z,21.21
2019-06-27T00:35:02.359Z,21.22
2019-06-27T00:36:20.803Z,21.21
2019-06-27T00:37:13.100Z,21.22
2019-06-27T00:37:39.267Z,21.2
2019-06-27T00:38:31.555Z,21.11
2019-06-27T00:39:23.840Z,21.06
2019-06-27T00:39:49.971Z,21.03
2019-06-27T00:40:42.264Z,21.05
2019-06-27T00:42:00.751Z,21.07
2019-06-27T00:42:53.042Z,21.09
2019-06-27T00:43:19.178Z,21.07
2019-06-27T00:44:11.486Z,21.09
2019-06-27T00:45:03.767Z,21.21
2019-06-27T00:45:29.927Z,21.24
2019-06-27T00:46:22.218Z,21.15
2019-06-27T00:47:40.642Z,21.3
2019-06-27T00:48:32.945Z,21.25
2019-06-27T00:48:59.113Z,21.35
2019-06-27T00:49:51.394Z,21.21
2019-06-27T00:50:43.679Z,21.09
2019-06-27T00:51:09.852Z,21.09
2019-06-27T00:52:02.154Z,21.07
2019-06-27T00:53:20.631Z,21.11
2019-06-27T00:54:12.916Z,21.14
2019-06-27T00:54:39.058Z,21.14
2019-06-27T00:55:31.357Z,21.06
2019-06-27T00:56:23.641Z,21.05
2019-06-27T00:56:49.794Z,21.06
2019-06-27T00:58:10.215Z,21.12
2019-06-27T00:59:02.511Z,21.06
2019-06-27T01:00:21.009Z,21.15
2019-06-27T01:01:13.336Z,21.07
2019-06-27T01:01:39.527Z,21.07
2019-06-27T01:02:31.812Z,21.09
2019-06-27T01:03:50.278Z,21.11
2019-06-27T01:04:42.565Z,21.14
2019-06-27T01:05:08.706Z,21.11
2019-06-27T01:06:01.017Z,21.22
2019-06-27T01:06:53.325Z,21.29
2019-06-27T01:07:19.509Z,21.35
2019-06-27T01:08:11.803Z,21.36
2019-06-27T01:09:30.268Z,21.22
2019-06-27T01:10:22.580Z,21.05
2019-06-27T01:10:48.745Z,21.09
2019-06-27T01:11:41.029Z,21.22
2019-06-27T01:12:33.361Z,21.14
2019-06-27T01:12:59.503Z,21.09
2019-06-27T01:13:51.815Z,21.09
2019-06-27T01:15:10.270Z,21.12
2019-06-27T01:16:02.575Z,21.09
2019-06-27T01:16:28.732Z,21.06
2019-06-27T01:17:21.074Z,21.06
2019-06-27T01:18:13.404Z,21.09
2019-06-27T01:18:39.566Z,21.09
2019-06-27T01:19:31.863Z,21.09
2019-06-27T01:20:50.399Z,21.06
2019-06-27T01:21:42.686Z,20.97
2019-06-27T01:22:08.846Z,21.07
2019-06-27T01:23:01.169Z,21.15
2019-06-27T01:24:20.590Z,21.11
2019-06-27T01:25:12.915Z,21.14
2019-06-27T01:25:39.061Z,21.09
2019-06-27T01:26:31.378Z,21.07
2019-06-27T01:27:51.776Z,21.03
2019-06-27T01:29:10.207Z,21.09
2019-06-27T01:30:02.494Z,21.14
2019-06-27T01:31:20.916Z,21.14
2019-06-27T01:32:13.282Z,21.18
2019-06-27T01:32:39.433Z,21.17
2019-06-27T01:33:31.743Z,21.17
2019-06-27T01:34:50.188Z,21.29
2019-06-27T01:35:43.490Z,21.33
2019-06-27T01:36:09.645Z,21.35
2019-06-27T01:37:02.063Z,21.24
2019-06-27T01:38:20.487Z,21.11
2019-06-27T01:39:12.800Z,21.18
2019-06-27T01:39:38.937Z,21.22
2019-06-27T01:40:31.254Z,21.22
2019-06-27T01:41:23.557Z,21.09
2019-06-27T01:41:49.691Z,21.18
2019-06-27T01:42:41.980Z,21.24
2019-06-27T01:44:01.429Z,21.12
2019-06-27T01:44:53.729Z,21.14
2019-06-27T01:45:19.890Z,21.17
2019-06-27T01:46:12.211Z,21.06
2019-06-27T01:47:30.670Z,21.07
2019-06-27T01:48:23.059Z,21.07
2019-06-27T01:48:49.232Z,21.11
2019-06-27T01:49:41.529Z,21.12
2019-06-27T01:50:33.832Z,21.2
2019-06-27T01:50:59.965Z,21.09
2019-06-27T01:51:52.296Z,21.03
2019-06-27T01:53:10.747Z,20.96
2019-06-27T01:54:03.063Z,20.93
2019-06-27T01:54:29.214Z,21.03
2019-06-27T01:55:21.499Z,21.11
2019-06-27T01:56:13.791Z,20.99
2019-06-27T01:56:39.938Z,20.99
2019-06-27T01:57:45.464Z,20.92
2019-06-27T01:58:00.330Z,20.97
2019-06-27T01:58:52.632Z,20.9
2019-06-27T01:59:18.803Z,20.93
2019-06-27T02:00:11.149Z,20.92
2019-06-27T02:01:03.503Z,20.88
2019-06-27T02:01:29.647Z,20.87
2019-06-27T02:02:21.937Z,20.95
2019-06-27T02:03:40.363Z,20.96
2019-06-27T02:04:32.689Z,21
2019-06-27T02:04:58.862Z,20.93
2019-06-27T02:05:51.178Z,20.97
2019-06-27T02:06:43.521Z,20.95
2019-06-27T02:07:09.654Z,20.96
2019-06-27T02:08:01.951Z,21.06
2019-06-27T02:09:20.374Z,21.05
2019-06-27T02:10:12.753Z,21.03
2019-06-27T02:10:38.890Z,21.06
2019-06-27T02:11:31.184Z,21.17
2019-06-27T02:12:23.486Z,21.03
2019-06-27T02:12:49.631Z,21.06
2019-06-27T02:13:41.913Z,21.15
2019-06-27T02:15:00.352Z,21.06
2019-06-27T02:15:53.666Z,21.03
2019-06-27T02:16:19.830Z,20.9
2019-06-27T02:17:12.107Z,20.95
2019-06-27T02:18:30.557Z,20.97
2019-06-27T02:19:22.885Z,20.95
2019-06-27T02:19:49.017Z,20.93
2019-06-27T02:20:41.334Z,20.99
2019-06-27T02:21:33.613Z,21
2019-06-27T02:21:59.782Z,20.99
2019-06-27T02:22:52.059Z,20.96
2019-06-27T02:23:19.216Z,20.9
2019-06-27T02:24:11.539Z,20.97
2019-06-27T02:25:03.844Z,20.81
2019-06-27T02:25:29.977Z,20.85
2019-06-27T02:26:22.262Z,20.92
2019-06-27T02:27:40.720Z,20.85
2019-06-27T02:28:08.835Z,20.87
2019-06-27T02:29:01.150Z,20.92
2019-06-27T02:29:53.438Z,20.87
2019-06-27T02:30:19.572Z,20.95
2019-06-27T02:31:11.895Z,20.88
2019-06-27T02:32:30.352Z,20.93
2019-06-27T02:33:22.666Z,20.87
2019-06-27T02:33:48.805Z,20.82
2019-06-27T02:34:41.121Z,20.85
2019-06-27T02:35:33.453Z,20.75
2019-06-27T02:35:59.617Z,20.7
2019-06-27T02:36:51.900Z,20.77
2019-06-27T02:38:10.401Z,20.72
2019-06-27T02:39:02.699Z,20.67
2019-06-27T02:39:28.866Z,20.84
2019-06-27T02:40:21.215Z,20.72
2019-06-27T02:41:13.516Z,20.74
2019-06-27T02:41:39.656Z,20.75
2019-06-27T02:42:31.948Z,20.88
2019-06-27T02:43:50.493Z,20.84
2019-06-27T02:44:42.832Z,20.95
2019-06-27T02:45:08.990Z,20.92
2019-06-27T02:46:01.313Z,20.77
2019-06-27T02:46:53.609Z,20.82
2019-06-27T02:47:19.772Z,20.87
2019-06-27T02:48:12.095Z,20.9
2019-06-27T02:49:30.619Z,20.88
2019-06-27T02:50:22.942Z,20.88
2019-06-27T02:50:49.087Z,20.9
2019-06-27T02:51:41.383Z,20.93
2019-06-27T02:52:33.671Z,20.77
2019-06-27T02:52:59.854Z,20.8
2019-06-27T02:53:52.210Z,20.65
2019-06-27T02:55:10.676Z,20.63
2019-06-27T02:56:02.979Z,20.69
2019-06-27T02:56:29.126Z,20.65
2019-06-27T02:57:21.456Z,20.59
2019-06-27T02:58:43.294Z,20.59
2019-06-27T02:59:09.435Z,20.62
2019-06-27T03:00:01.776Z,20.7
2019-06-27T03:01:20.219Z,20.75
2019-06-27T03:02:12.561Z,20.65
2019-06-27T03:02:38.765Z,20.82
2019-06-27T03:03:31.081Z,20.82
2019-06-27T03:04:23.457Z,20.82
2019-06-27T03:04:49.673Z,20.72
2019-06-27T03:05:41.988Z,20.75
2019-06-27T03:07:00.539Z,20.7
2019-06-27T03:07:52.879Z,20.69
2019-06-27T03:08:19.040Z,20.75
2019-06-27T03:09:11.364Z,20.66
2019-06-27T03:10:03.655Z,20.6
2019-06-27T03:10:29.809Z,20.66
2019-06-27T03:11:22.131Z,20.58
2019-06-27T03:12:41.594Z,20.52
2019-06-27T03:14:00.076Z,20.47
2019-06-27T03:14:52.363Z,20.25
2019-06-27T03:16:10.859Z,20.43
2019-06-27T03:17:03.186Z,20.43
2019-06-27T03:17:29.338Z,20.39
2019-06-27T03:18:21.660Z,20.43
2019-06-27T03:19:40.053Z,20.52
2019-06-27T03:20:32.335Z,20.43
2019-06-27T03:21:50.816Z,20.4
2019-06-27T03:23:10.291Z,20.32
2019-06-27T03:24:02.647Z,20.19
2019-06-27T03:24:28.788Z,20.16
2019-06-27T03:25:21.108Z,20.21
2019-06-27T03:26:13.474Z,20.34
2019-06-27T03:26:39.670Z,20.28
2019-06-27T03:27:31.964Z,20.31
2019-06-27T03:28:53.961Z,20.34
2019-06-27T03:29:20.478Z,20.25
2019-06-27T03:30:12.861Z,20.19
2019-06-27T03:30:39.014Z,20.19
2019-06-27T03:31:31.323Z,20.19
2019-06-27T03:32:23.650Z,20.31
2019-06-27T03:32:49.800Z,20.29
2019-06-27T03:33:42.102Z,20.34
2019-06-27T03:35:00.636Z,20.22
2019-06-27T03:35:53.016Z,20.19
2019-06-27T03:36:19.176Z,20.16
2019-06-27T03:37:11.483Z,20.29
2019-06-27T03:38:03.801Z,20.26
2019-06-27T03:38:29.933Z,20.34
2019-06-27T03:39:22.212Z,20.34
2019-06-27T03:40:40.729Z,20.44
2019-06-27T03:41:33.060Z,20.4
2019-06-27T03:41:59.206Z,20.47
2019-06-27T03:42:51.561Z,20.41
2019-06-27T03:44:10.049Z,20.47
2019-06-27T03:45:02.368Z,20.47
2019-06-27T03:45:29.485Z,20.58
2019-06-27T03:46:21.795Z,20.63
2019-06-27T03:47:40.269Z,20.63
2019-06-27T03:48:32.650Z,20.62
2019-06-27T03:48:58.818Z,20.51
2019-06-27T03:49:51.111Z,20.58
2019-06-27T03:50:43.454Z,20.66
2019-06-27T03:51:09.655Z,20.63
2019-06-27T03:52:01.962Z,20.6
2019-06-27T03:53:20.407Z,20.55
2019-06-27T03:54:12.718Z,20.62
2019-06-27T03:54:38.876Z,20.62
2019-06-27T03:55:31.244Z,20.62
2019-06-27T03:56:50.513Z,20.52
2019-06-27T03:57:44.842Z,20.47
2019-06-27T03:58:10.487Z,20.41
2019-06-27T03:59:32.312Z,20.48
2019-06-27T04:00:50.780Z,20.58
2019-06-27T04:01:43.096Z,20.55
2019-06-27T04:02:09.292Z,20.62
2019-06-27T04:03:01.627Z,20.43
2019-06-27T04:04:20.327Z,20.69
2019-06-27T04:05:12.624Z,20.55
2019-06-27T04:05:38.754Z,20.56
2019-06-27T04:06:31.077Z,20.56
2019-06-27T04:07:23.425Z,20.58
2019-06-27T04:07:49.595Z,20.62
2019-06-27T04:08:41.884Z,20.63
2019-06-27T04:10:00.413Z,20.56
2019-06-27T04:10:52.702Z,20.59
2019-06-27T04:11:18.871Z,20.58
2019-06-27T04:12:11.147Z,20.59
2019-06-27T04:13:03.504Z,20.66
2019-06-27T04:13:29.715Z,20.7
2019-06-27T04:14:22.043Z,20.78
2019-06-27T04:15:40.522Z,20.74
2019-06-27T04:16:32.889Z,20.81
2019-06-27T04:16:59.096Z,20.67
2019-06-27T04:17:51.403Z,20.78
2019-06-27T04:18:43.752Z,20.72
2019-06-27T04:19:09.917Z,20.74
2019-06-27T04:20:02.221Z,20.72
2019-06-27T04:21:20.764Z,20.7
2019-06-27T04:22:17.042Z,20.69
2019-06-27T04:22:40.175Z,20.74
2019-06-27T04:23:32.497Z,20.7
2019-06-27T04:24:50.981Z,20.8
2019-06-27T04:25:43.266Z,20.84
2019-06-27T04:26:09.402Z,20.82
2019-06-27T04:27:01.711Z,20.95
2019-06-27T04:28:21.185Z,20.78
2019-06-27T04:29:31.738Z,20.7
2019-06-27T04:29:42.669Z,20.75
2019-06-27T04:30:08.836Z,20.72
2019-06-27T04:31:01.172Z,20.72
2019-06-27T04:31:53.486Z,20.66
2019-06-27T04:32:19.627Z,20.67
2019-06-27T04:33:11.976Z,20.6
2019-06-27T04:34:30.458Z,20.65
2019-06-27T04:35:22.799Z,20.58
2019-06-27T04:35:48.949Z,20.63
2019-06-27T04:36:41.236Z,20.65
2019-06-27T04:37:33.526Z,20.74
2019-06-27T04:37:59.683Z,20.59
2019-06-27T04:38:52.052Z,20.59
2019-06-27T04:40:10.536Z,20.59
2019-06-27T04:41:02.873Z,20.78
2019-06-27T04:41:29.009Z,20.7
2019-06-27T04:42:21.339Z,20.7
2019-06-27T04:43:40.775Z,20.66
2019-06-27T04:44:33.121Z,20.63
2019-06-27T04:44:59.263Z,20.59
2019-06-27T04:45:51.590Z,20.41
2019-06-27T04:47:10.072Z,20.41
2019-06-27T04:48:02.427Z,20.41
2019-06-27T04:49:20.905Z,20.43
2019-06-27T04:50:13.257Z,20.43
2019-06-27T04:50:39.427Z,20.47
2019-06-27T04:51:31.770Z,20.44
2019-06-27T04:52:50.241Z,20.56
2019-06-27T04:53:42.566Z,20.62
2019-06-27T04:54:08.716Z,20.59
2019-06-27T04:55:03.236Z,20.41
2019-06-27T04:56:20.484Z,20.5
2019-06-27T04:57:12.827Z,20.34
2019-06-27T04:57:38.967Z,20.26
2019-06-27T04:58:31.260Z,20.07
2019-06-27T04:59:23.580Z,20.09
2019-06-27T04:59:53.626Z,20.09
2019-06-27T05:00:43.113Z,20.18
2019-06-27T05:01:09.277Z,20.13
2019-06-27T05:02:01.620Z,20.26
2019-06-27T05:03:20.138Z,20.24
2019-06-27T05:04:12.475Z,20.22
2019-06-27T05:05:30.917Z,20.28
2019-06-27T05:06:23.269Z,20.19
2019-06-27T05:06:49.433Z,20.24
2019-06-27T05:07:41.723Z,20.4
2019-06-27T05:09:00.198Z,20.4
2019-06-27T05:09:52.521Z,20.47
2019-06-27T05:10:18.679Z,20.41
2019-06-27T05:11:10.997Z,20.59
2019-06-27T05:12:03.318Z,20.56
2019-06-27T05:12:29.453Z,20.6
2019-06-27T05:13:21.748Z,20.72
2019-06-27T05:14:41.166Z,20.92
2019-06-27T05:15:33.492Z,21.12
2019-06-27T05:15:59.653Z,21.39
2019-06-27T05:16:51.999Z,21.73
2019-06-27T05:18:10.460Z,21.88
2019-06-27T05:19:02.767Z,22.06
2019-06-27T05:19:28.903Z,21.99
2019-06-27T05:20:21.241Z,21.99
2019-06-27T05:21:13.530Z,21.92
2019-06-27T05:21:39.673Z,21.79
2019-06-27T05:22:31.985Z,21.93
2019-06-27T05:23:50.965Z,22.02
2019-06-27T05:24:43.277Z,21.96
2019-06-27T05:25:09.449Z,21.91
2019-06-27T05:26:01.846Z,21.91
2019-06-27T05:27:20.226Z,21.8
2019-06-27T05:28:12.579Z,21.79
2019-06-27T05:28:38.722Z,21.83
2019-06-27T05:29:31.028Z,21.96
2019-06-27T05:30:51.627Z,21.79
2019-06-27T05:31:43.793Z,21.82
2019-06-27T05:32:09.934Z,21.83
2019-06-27T05:33:02.257Z,21.69
2019-06-27T05:34:20.709Z,21.73
2019-06-27T05:35:13.003Z,21.67
2019-06-27T05:35:39.178Z,21.75
2019-06-27T05:36:32.460Z,21.58
2019-06-27T05:37:50.898Z,21.46
2019-06-27T05:38:43.203Z,21.46
2019-06-27T05:39:09.352Z,21.4
2019-06-27T05:40:01.665Z,21.3
2019-06-27T05:41:20.079Z,21.36
2019-06-27T05:42:12.377Z,21.45
2019-06-27T05:43:30.899Z,21.52
2019-06-27T05:44:23.192Z,21.67
2019-06-27T05:44:49.337Z,21.82
2019-06-27T05:45:41.632Z,21.77
2019-06-27T05:47:00.150Z,21.64
2019-06-27T05:47:52.445Z,21.58
2019-06-27T05:49:10.930Z,21.58
2019-06-27T05:50:03.251Z,21.37
2019-06-27T05:50:29.417Z,21.39
2019-06-27T05:51:21.745Z,21.51
2019-06-27T05:52:40.196Z,21.33
2019-06-27T05:53:32.484Z,21.35
2019-06-27T05:53:59.617Z,21.22
2019-06-27T05:54:51.943Z,21.17
2019-06-27T05:56:10.427Z,21.22
2019-06-27T05:57:02.723Z,21.24
2019-06-27T05:57:28.915Z,21.22
2019-06-27T05:58:21.213Z,21.2
2019-06-27T05:59:13.562Z,21.27
2019-06-27T05:59:39.737Z,21.37
2019-06-27T06:01:00.298Z,21.3
2019-06-27T06:01:53.135Z,21.27
2019-06-27T06:02:19.292Z,21.05
2019-06-27T06:03:11.642Z,21.09
2019-06-27T06:04:30.123Z,21.09
2019-06-27T06:05:22.989Z,21.05
2019-06-27T06:05:49.187Z,21.09
2019-06-27T06:06:41.508Z,20.84
2019-06-27T06:08:00.086Z,20.74
2019-06-27T06:08:52.363Z,20.95
2019-06-27T06:10:10.861Z,21.24
2019-06-27T06:11:03.152Z,21.48
2019-06-27T06:11:29.338Z,21.55
2019-06-27T06:12:21.666Z,21.55
2019-06-27T06:13:40.174Z,21.61
2019-06-27T06:14:32.518Z,21.69
2019-06-27T06:14:58.889Z,21.72
2019-06-27T06:15:51.693Z,21.67
2019-06-27T06:17:10.123Z,21.73
2019-06-27T06:18:02.653Z,21.61
2019-06-27T06:18:28.786Z,21.79
2019-06-27T06:19:21.103Z,21.91
2019-06-27T06:20:13.489Z,21.99
2019-06-27T06:20:39.634Z,21.95
2019-06-27T06:21:31.928Z,21.93
2019-06-27T06:22:50.388Z,22.07
2019-06-27T06:23:42.727Z,22.2
2019-06-27T06:24:08.915Z,22.13
2019-06-27T06:25:01.243Z,22.18
2019-06-27T06:25:53.579Z,22.14
2019-06-27T06:26:19.721Z,22.29
2019-06-27T06:27:12.019Z,22.38
2019-06-27T06:28:30.487Z,22.48
2019-06-27T06:29:22.824Z,22.44
2019-06-27T06:29:48.963Z,22.48
2019-06-27T06:30:44.667Z,22.38
2019-06-27T06:31:08.888Z,22.48
2019-06-27T06:32:01.235Z,22.51
2019-06-27T06:32:53.533Z,22.53
2019-06-27T06:33:19.675Z,22.51
2019-06-27T06:34:11.987Z,22.54
2019-06-27T06:35:30.538Z,22.14
2019-06-27T06:36:22.782Z,22.17
2019-06-27T06:36:48.915Z,22.17
2019-06-27T06:37:41.260Z,22.29
2019-06-27T06:38:33.606Z,22.15
2019-06-27T06:38:59.762Z,22.23
2019-06-27T06:39:52.082Z,22.3
2019-06-27T06:41:10.524Z,22.43
2019-06-27T06:42:02.848Z,22.36
2019-06-27T06:42:28.989Z,22.2
2019-06-27T06:43:21.701Z,22.2
2019-06-27T06:44:40.201Z,21.96
2019-06-27T06:45:32.550Z,22.13
2019-06-27T06:45:58.719Z,22.18
2019-06-27T06:46:51.067Z,22.17
2019-06-27T06:47:43.362Z,22.26
2019-06-27T06:48:09.527Z,22.2
2019-06-27T06:49:01.856Z,22.32
2019-06-27T06:50:23.353Z,22.18
2019-06-27T06:51:13.715Z,22.17
2019-06-27T06:51:39.874Z,22.08
2019-06-27T06:52:32.196Z,21.93
2019-06-27T06:53:50.720Z,21.85
2019-06-27T06:54:43.040Z,21.8
2019-06-27T06:55:09.174Z,21.8
2019-06-27T06:56:02.456Z,21.66
2019-06-27T06:57:20.882Z,21.27
2019-06-27T06:58:13.236Z,21.21
2019-06-27T06:58:39.405Z,21.32
2019-06-27T06:59:31.761Z,21.42
2019-06-27T07:01:00.661Z,21.51
2019-06-27T07:02:10.626Z,21.51
2019-06-27T07:03:03.085Z,21.5
2019-06-27T07:03:29.342Z,21.42
2019-06-27T07:04:21.663Z,21.24
2019-06-27T07:05:40.155Z,21.35
2019-06-27T07:06:32.453Z,21.48
2019-06-27T07:07:50.992Z,21.57
2019-06-27T07:08:43.286Z,21.73
2019-06-27T07:09:09.439Z,21.73
2019-06-27T07:10:01.817Z,21.82
2019-06-27T07:11:20.273Z,21.75
2019-06-27T07:12:12.612Z,21.83
2019-06-27T07:12:38.779Z,21.95
2019-06-27T07:13:31.173Z,22.1
2019-06-27T07:14:26.901Z,22.41
2019-06-27T07:14:50.679Z,22.54
2019-06-27T07:15:43.046Z,22.93
2019-06-27T07:16:09.207Z,23.05
2019-06-27T07:17:01.514Z,23.46
2019-06-27T07:17:53.839Z,23.99
2019-06-27T07:18:19.978Z,24.16
2019-06-27T07:19:12.293Z,24.45
2019-06-27T07:20:30.957Z,24.98
2019-06-27T07:21:23.323Z,25.53
2019-06-27T07:21:49.731Z,25.69
2019-06-27T07:22:42.068Z,25.87
2019-06-27T07:24:00.611Z,26.13
2019-06-27T07:24:52.942Z,26.66
2019-06-27T07:25:19.100Z,26.96
2019-06-27T07:26:11.409Z,27.35
2019-06-27T07:27:30.523Z,28.12
2019-06-27T07:28:22.921Z,28.29
2019-06-27T07:28:49.089Z,28.08
2019-06-27T07:29:41.438Z,28.11
2019-06-27T07:30:33.868Z,28.72
2019-06-27T07:31:00.189Z,28.7
2019-06-27T07:31:53.359Z,29.26
2019-06-27T07:32:19.538Z,29.41
2019-06-27T07:33:11.933Z,29.56
2019-06-27T07:34:30.428Z,29.78
2019-06-27T07:35:22.876Z,29.86
2019-06-27T07:35:49.009Z,30.02
2019-06-27T07:36:41.330Z,30.09
2019-06-27T07:37:33.663Z,30.66
2019-06-27T07:37:59.815Z,30.78
2019-06-27T07:38:52.117Z,31.15
2019-06-27T07:40:10.799Z,30.96
2019-06-27T07:41:03.116Z,30.94
2019-06-27T07:41:29.315Z,30.9
2019-06-27T07:42:21.621Z,31.37
2019-06-27T07:43:40.094Z,32.09
2019-06-27T07:44:32.413Z,32.03
2019-06-27T07:45:50.917Z,32.64
2019-06-27T07:47:11.371Z,33.02
2019-06-27T07:48:03.712Z,32.8
2019-06-27T07:48:29.912Z,32.67
2019-06-27T07:49:22.223Z,32.7
2019-06-27T07:49:49.067Z,32.7
2019-06-27T07:50:41.526Z,32.77
2019-06-27T07:51:33.860Z,33
2019-06-27T07:51:59.997Z,32.95
2019-06-27T07:52:52.393Z,32.97
2019-06-27T07:54:11.011Z,33.15
2019-06-27T07:55:03.345Z,32.92
2019-06-27T07:55:29.495Z,32.78
2019-06-27T07:56:21.965Z,33.11
2019-06-27T07:56:49.102Z,33.24
2019-06-27T07:57:41.461Z,33.19
2019-06-27T07:59:00.232Z,33.42
2019-06-27T07:59:52.540Z,33.5
2019-06-27T08:00:18.747Z,33.32
2019-06-27T08:01:11.056Z,33.39
2019-06-27T08:02:03.428Z,33.61
2019-06-27T08:02:30.609Z,33.68
2019-06-27T08:03:22.992Z,33.49
2019-06-27T08:03:49.145Z,33.79
2019-06-27T08:04:41.445Z,34.1
2019-06-27T08:05:33.748Z,34.54
2019-06-27T08:05:59.914Z,34.55
2019-06-27T08:06:52.257Z,34.39
2019-06-27T08:08:10.758Z,34.6
2019-06-27T08:09:03.182Z,34.32
2019-06-27T08:09:29.326Z,34.36
2019-06-27T08:10:21.702Z,34.38
2019-06-27T08:11:40.260Z,34.58
2019-06-27T08:12:32.598Z,34.9
2019-06-27T08:12:58.741Z,34.96
2019-06-27T08:13:51.074Z,34.89
2019-06-27T08:14:43.419Z,34.96
2019-06-27T08:15:09.568Z,34.95
2019-06-27T08:16:01.979Z,34.9
2019-06-27T08:17:20.844Z,35.02
2019-06-27T08:18:13.148Z,34.78
2019-06-27T08:18:39.294Z,34.52
2019-06-27T08:19:32.640Z,34.51
2019-06-27T08:19:58.791Z,34.7
2019-06-27T08:20:51.123Z,34.95
2019-06-27T08:21:43.459Z,34.86
2019-06-27T08:22:09.627Z,34.8
2019-06-27T08:23:01.977Z,35.02
2019-06-27T08:24:22.403Z,35.26
2019-06-27T08:24:49.531Z,34.92
2019-06-27T08:25:41.881Z,35.07
2019-06-27T08:27:00.408Z,35.45
2019-06-27T08:27:52.740Z,35.79
2019-06-27T08:28:18.888Z,35.76
2019-06-27T08:29:11.185Z,35.9
2019-06-27T08:30:03.495Z,36.05
2019-06-27T08:30:29.939Z,35.97
2019-06-27T08:31:22.304Z,35.95
2019-06-27T08:31:51.700Z,36.08
2019-06-27T08:32:42.736Z,36.67
2019-06-27T08:33:09.017Z,36.89
2019-06-27T08:34:01.354Z,36.92
2019-06-27T08:34:53.684Z,36.99
2019-06-27T08:35:19.856Z,36.95
2019-06-27T08:36:13.235Z,36.86
2019-06-27T08:36:40.068Z,36.96
2019-06-27T08:37:32.414Z,37.03
2019-06-27T08:38:50.886Z,36.57
2019-06-27T08:39:43.226Z,35.73
2019-06-27T08:40:09.395Z,35.41
2019-06-27T08:41:01.951Z,35.63
2019-06-27T08:41:29.060Z,35.79
2019-06-27T08:42:21.369Z,35.97
2019-06-27T08:43:13.746Z,35.86
2019-06-27T08:43:39.925Z,35.92
2019-06-27T08:44:32.360Z,35.56
2019-06-27T08:45:50.840Z,36.18
2019-06-27T08:46:43.188Z,36.28
2019-06-27T08:47:09.335Z,36.43
2019-06-27T08:48:01.644Z,36.7
2019-06-27T08:49:20.151Z,37.17
2019-06-27T08:50:12.489Z,37.23
2019-06-27T08:51:31.032Z,37.28
2019-06-27T08:52:23.387Z,37.53
2019-06-27T08:52:49.528Z,37.78
2019-06-27T08:53:42.884Z,38.01
2019-06-27T08:54:09.058Z,38.04
2019-06-27T08:55:01.374Z,38.06
2019-06-27T08:55:53.777Z,38.46
2019-06-27T08:56:20.173Z,38.17
2019-06-27T08:57:12.542Z,38.21
2019-06-27T08:57:38.709Z,38.31
2019-06-27T08:58:31.031Z,38.31
2019-06-27T08:59:23.490Z,38.45
2019-06-27T08:59:49.871Z,38.38
2019-06-27T09:00:45.662Z,38.5
2019-06-27T09:02:08.259Z,38.57
2019-06-27T09:03:20.790Z,38.8
2019-06-27T09:04:13.706Z,39.03
2019-06-27T09:04:39.890Z,38.55
2019-06-27T09:05:32.444Z,38.17
2019-06-27T09:06:51.944Z,37.18
2019-06-27T09:08:10.415Z,36.73
2019-06-27T09:09:02.721Z,36.89
2019-06-27T09:09:28.900Z,36.89
2019-06-27T09:10:21.272Z,37.11
2019-06-27T09:11:13.687Z,37.35
2019-06-27T09:11:39.921Z,37.36
2019-06-27T09:12:32.248Z,37.44
2019-06-27T09:13:50.997Z,36.57
2019-06-27T09:14:43.345Z,36.46
2019-06-27T09:15:09.517Z,36.72
2019-06-27T09:16:01.879Z,36.93
2019-06-27T09:17:20.396Z,37.13
2019-06-27T09:18:12.726Z,37.55
2019-06-27T09:18:38.906Z,37.78
2019-06-27T09:19:31.254Z,38.28
2019-06-27T09:20:23.633Z,38.06
2019-06-27T09:20:49.807Z,38.09
2019-06-27T09:21:42.129Z,38.34
2019-06-27T09:23:00.639Z,38.57
2019-06-27T09:23:52.942Z,38.64
2019-06-27T09:24:19.093Z,38.21
2019-06-27T09:25:11.432Z,38.62
2019-06-27T09:26:03.798Z,38.73
2019-06-27T09:26:29.969Z,38.48
2019-06-27T09:27:22.292Z,38.57
2019-06-27T09:28:40.817Z,38.55
2019-06-27T09:29:33.147Z,39.02
2019-06-27T09:29:59.301Z,39.21
2019-06-27T09:30:51.785Z,38.91
2019-06-27T09:32:24.069Z,39
2019-06-27T09:33:30.599Z,38.45
2019-06-27T09:34:22.913Z,38.39
2019-06-27T09:34:49.059Z,38.48
2019-06-27T09:35:41.383Z,38.67
2019-06-27T09:36:33.708Z,38.68
2019-06-27T09:37:00.283Z,38.6
2019-06-27T09:37:28.863Z,38.61
2019-06-27T09:38:52.669Z,39.12
2019-06-27T09:39:19.998Z,39.21
2019-06-27T09:40:12.485Z,39.37
2019-06-27T09:41:30.978Z,39.56
2019-06-27T09:42:23.292Z,39.85
2019-06-27T09:42:49.440Z,39.8
2019-06-27T09:43:41.787Z,39.85
2019-06-27T09:45:01.268Z,39.99
2019-06-27T09:45:53.601Z,39.9
2019-06-27T09:46:19.779Z,40
2019-06-27T09:47:12.105Z,39.92
2019-06-27T09:48:30.621Z,39.93
2019-06-27T09:49:22.917Z,39.58
2019-06-27T09:49:49.069Z,39.7
2019-06-27T09:50:42.408Z,39.8
2019-06-27T09:52:01.520Z,39.87
2019-06-27T09:52:53.820Z,39.36
2019-06-27T09:53:19.982Z,39.21
2019-06-27T09:54:12.345Z,38.99
2019-06-27T09:55:30.855Z,38.92
2019-06-27T09:56:23.208Z,39.25
2019-06-27T09:56:49.388Z,39.34
2019-06-27T09:57:41.739Z,39.65
2019-06-27T09:59:00.244Z,39.71
2019-06-27T09:59:52.610Z,39.46
2019-06-27T10:00:18.772Z,39.58
2019-06-27T10:01:11.147Z,39.77
2019-06-27T10:02:03.502Z,39.62
2019-06-27T10:02:40.779Z,39.38
2019-06-27T10:03:23.164Z,38.84
2019-06-27T10:03:49.305Z,38.97
2019-06-27T10:04:41.667Z,39.03
2019-06-27T10:06:00.158Z,39.09
2019-06-27T10:06:52.526Z,38.95
2019-06-27T10:08:10.962Z,38.95
2019-06-27T10:09:03.349Z,39.12
2019-06-27T10:09:29.501Z,39.19
2019-06-27T10:10:21.853Z,38.84
2019-06-27T10:11:40.369Z,39
2019-06-27T10:12:42.083Z,38.8
2019-06-27T10:13:01.955Z,38.69
2019-06-27T10:14:20.461Z,39.15
2019-06-27T10:15:12.810Z,38.76
2019-06-27T10:15:38.967Z,38.62
2019-06-27T10:16:31.280Z,38.43
2019-06-27T10:17:23.632Z,38.34
2019-06-27T10:17:49.835Z,38.43
2019-06-27T10:18:42.157Z,38.43
2019-06-27T10:20:00.710Z,38.95
2019-06-27T10:20:53.023Z,38.95
2019-06-27T10:21:19.168Z,39.11
2019-06-27T10:22:11.530Z,38.86
2019-06-27T10:23:03.858Z,39.21
2019-06-27T10:23:30.007Z,39.24
2019-06-27T10:24:22.321Z,39.4
2019-06-27T10:25:40.881Z,39.58
2019-06-27T10:26:33.347Z,39.29
2019-06-27T10:26:59.506Z,39.33
2019-06-27T10:27:51.885Z,39.24
2019-06-27T10:29:10.416Z,39.04
2019-06-27T10:30:02.975Z,39.04
2019-06-27T10:30:29.014Z,38.97
2019-06-27T10:31:21.377Z,38.55
2019-06-27T10:32:13.733Z,38.5
2019-06-27T10:32:39.873Z,38.52
2019-06-27T10:33:33.169Z,38.65
2019-06-27T10:33:59.361Z,38.64
2019-06-27T10:34:51.705Z,38.82
2019-06-27T10:36:10.172Z,38.96
2019-06-27T10:37:02.487Z,39.03
2019-06-27T10:38:20.966Z,39.18
2019-06-27T10:39:13.307Z,39.33
2019-06-27T10:39:39.487Z,39.36
2019-06-27T10:40:31.820Z,39
2019-06-27T10:41:50.348Z,38.73
2019-06-27T10:42:42.646Z,38.83
2019-06-27T10:43:08.843Z,38.68
2019-06-27T10:44:01.145Z,38.58
2019-06-27T10:44:53.581Z,38.71
2019-06-27T10:45:19.728Z,38.64
2019-06-27T10:46:12.057Z,38.38
2019-06-27T10:47:30.534Z,37.89
2019-06-27T10:48:22.845Z,37.92